Terminal Aerodrome Forecast
Issued by NWS

Home | Current Version | Previous Version | Text Only | Print | Product List | Glossary On
Versions: 1 2 3 4 5 6 7 8 9 10 11 12 13 14 15 16 17 18
130
FTUS46 KPDT 070540
TAFYKM
TAF
KYKM 070540Z 0706/0806 28007KT P6SM OVC090
     FM071400 VRB06KT P6SM OVC070
     FM071800 VRB06KT P6SM BKN040 OVC070
     FM080400 25007KT P6SM BKN100=

USA.gov is the U.S. government's official web portal to all federal, state and local government web resources and services.